Time;durP1;ratioP1;P1;durP2;ratioP2;P2;SDS_P1;SDS_P2;PMS_P1;PMS_P2;Temp;Humidity;BMP_temperature;BMP_pressure;BME280_temperature;BME280_humidity;BME280_pressure;Samples;Min_cycle;Max_cycle;Signal;HPM_P1;HPM_P2
2023/11/16 00:00:59;;;;;;;6.72;3.17;;;;;;;6.35;100.00;100726.50;6025013;23;20200;-83
2023/11/16 00:03:33;;;;;;;5.75;3.20;;;7.70;99.90;;;6.34;100.00;100728.25;6035212;23;20053;-84
2023/11/16 00:06:01;;;;;;;5.18;3.70;;;;;;;6.33;100.00;100729.16;6016378;23;20472;-83
2023/11/16 00:08:29;;;;;;;5.07;3.63;;;;;;;6.34;100.00;100719.56;5997124;23;20019;-84
2023/11/16 00:11:21;;;;;;;4.25;3.22;;;7.70;99.90;;;6.28;100.00;100702.25;6013574;23;20062;-83
2023/11/16 00:13:47;;;;;;;5.35;3.65;;;7.60;99.90;;;6.30;100.00;100710.94;5869995;23;20025;-83
2023/11/16 00:16:16;;;;;;;14.10;3.78;;;7.70;99.90;;;6.29;100.00;100705.75;5834186;23;20020;-83
2023/11/16 00:18:53;;;;;;;7.15;3.60;;;7.60;99.90;;;6.24;100.00;100703.28;5867529;23;20020;-82
2023/11/16 00:21:42;;;;;;;8.13;4.05;;;7.60;99.90;;;6.21;100.00;100705.13;5882922;23;20021;-82
2023/11/16 00:24:10;;;;;;;9.73;3.75;;;7.60;99.90;;;6.17;100.00;100704.34;5853223;24;20024;-85
2023/11/16 00:26:36;;;;;;;8.90;3.92;;;7.50;99.90;;;6.17;100.00;100693.88;5805735;24;20024;-83
2023/11/16 00:29:12;;;;;;;6.07;3.40;;;7.50;99.90;;;6.16;100.00;100695.66;5883297;23;20036;-83
2023/11/16 00:31:38;;;;;;;4.20;3.00;;;7.50;99.90;;;6.12;100.00;100687.94;5848112;23;20036;-85
2023/11/16 00:34:13;;;;;;;6.80;3.50;;;7.50;99.90;;;6.14;100.00;100683.53;5824792;23;20017;-83
2023/11/16 00:36:39;;;;;;;5.13;3.25;;;7.50;99.90;;;6.15;100.00;100683.50;5848877;23;20458;-83
2023/11/16 00:39:19;;;;;;;10.00;3.55;;;7.50;99.90;;;6.19;100.00;100691.22;5830384;23;20013;-82
2023/11/16 00:41:47;;;;;;;6.30;3.15;;;7.50;99.90;;;6.13;100.00;100680.06;5880042;23;20048;-84
2023/11/16 00:44:14;;;;;;;6.85;3.22;;;7.50;99.90;;;6.15;100.00;100677.38;5892499;24;20020;-82
2023/11/16 00:46:43;;;;;;;4.65;2.80;;;7.50;99.90;;;6.12;100.00;100677.47;5895721;23;20079;-82
2023/11/16 00:49:09;;;;;;;6.88;2.70;;;7.50;99.90;;;6.11;100.00;100678.38;5971706;23;20469;-84
2023/11/16 00:51:35;;;;;;;6.65;2.95;;;7.50;99.90;;;6.11;100.00;100668.78;5993484;23;20034;-84
2023/11/16 00:54:01;;;;;;;6.63;3.08;;;7.50;99.90;;;6.12;100.00;100667.03;5968334;23;20038;-82
2023/11/16 00:56:35;;;;;;;6.88;3.40;;;7.50;99.90;;;6.15;100.00;100664.31;5965275;23;20402;-84
2023/11/16 00:59:03;;;;;;;4.47;3.05;;;7.50;99.90;;;6.20;100.00;100666.78;6012066;23;20101;-81
2023/11/16 01:01:30;;;;;;;5.30;2.60;;;7.50;99.90;;;6.16;100.00;100666.03;5968600;23;20095;-83
2023/11/16 01:04:03;;;;;;;5.13;2.97;;;7.50;99.90;;;6.15;100.00;100659.09;5982433;23;20573;-83
2023/11/16 01:06:31;;;;;;;10.77;4.20;;;7.50;99.90;;;6.14;100.00;100655.63;6010800;23;20045;-83
2023/11/16 01:08:59;;;;;;;4.47;2.65;;;7.50;99.90;;;6.15;100.00;100654.72;5973852;23;20009;-84
2023/11/16 01:11:31;;;;;;;9.77;2.80;;;7.50;99.90;;;6.15;100.00;100646.91;6009332;23;20352;-83
2023/11/16 01:13:58;;;;;;;5.32;3.30;;;;;;;6.16;100.00;100645.13;6062181;23;20494;-83
2023/11/16 01:16:38;;;;;;;6.50;3.20;;;7.50;99.90;;;6.14;100.00;100646.94;5996922;23;20014;-82
2023/11/16 01:19:04;;;;;;;9.52;3.08;;;7.50;99.90;;;6.12;100.00;100639.13;6032091;23;20014;-82
2023/11/16 01:21:30;;;;;;;5.25;2.80;;;7.50;99.90;;;6.13;100.00;100645.19;6083291;23;20021;-83
2023/11/16 01:24:02;;;;;;;6.05;3.13;;;7.50;99.90;;;6.10;100.00;100645.31;5964273;23;20012;-82
2023/11/16 01:26:32;;;;;;;6.05;3.08;;;7.50;99.90;;;6.10;100.00;100645.31;5928963;23;20623;-84
2023/11/16 01:29:01;;;;;;;7.85;2.80;;;;;;;6.09;100.00;100641.84;6001532;23;20012;-84
2023/11/16 01:31:53;;;;;;;7.28;3.55;;;7.50;99.90;;;6.10;100.00;100634.84;6005965;23;20040;-84
2023/11/16 01:34:20;;;;;;;4.75;3.05;;;7.50;99.90;;;6.12;100.00;100633.88;5968450;23;20014;-82
2023/11/16 01:36:57;;;;;;;7.78;3.92;;;;;;;6.12;100.00;100633.88;5976957;23;20036;-84
2023/11/16 01:39:23;;;;;;;12.18;3.92;;;7.50;99.90;;;6.11;100.00;100634.81;6060849;23;20024;-83
2023/11/16 01:41:49;;;;;;;9.45;4.43;;;7.50;99.90;;;6.08;100.00;100621.81;6012690;23;20085;-82
2023/11/16 01:44:21;;;;;;;9.98;3.42;;;;;;;6.07;100.00;100625.34;5999004;23;20006;-82
2023/11/16 01:46:50;;;;;;;16.60;4.80;;;;;;;6.06;100.00;100618.38;6011233;23;20014;-82
2023/11/16 01:49:16;;;;;;;11.07;4.72;;;7.50;99.90;;;6.07;100.00;100611.38;6020151;23;20014;-82
2023/11/16 01:54:14;;;;;;;8.73;4.30;;;7.50;99.90;;;6.08;100.00;100600.06;6046383;23;20025;-82
2023/11/16 01:56:40;;;;;;;8.77;5.13;;;7.50;99.90;;;6.10;100.00;100593.03;5995617;23;20015;-83
2023/11/16 01:59:23;;;;;;;10.20;5.60;;;7.50;99.90;;;6.18;100.00;100595.38;6044913;23;20005;-84
2023/11/16 02:02:13;;;;;;;11.52;6.22;;;7.50;99.90;;;6.23;100.00;100586.50;6037945;23;20018;-84
2023/11/16 02:04:41;;;;;;;11.13;6.32;;;7.60;99.90;;;6.24;100.00;100585.63;5951759;23;20016;-84
2023/11/16 02:07:07;;;;;;;18.08;7.15;;;7.60;99.90;;;6.30;100.00;100584.56;5942780;23;20019;-83
2023/11/16 02:09:33;;;;;;;18.58;7.13;;;7.60;99.90;;;6.29;100.00;100577.63;5929641;23;20491;-82
2023/11/16 02:12:09;;;;;;;16.35;7.22;;;;;;;6.34;100.00;100579.19;5972450;23;20094;-84
2023/11/16 02:14:46;;;;;;;;;;;7.70;99.90;;;6.32;100.00;100575.75;5949617;23;20011;-83
2023/11/16 02:17:12;;;;;;;12.40;6.82;;;7.70;99.90;;;6.35;100.00;100583.53;5968279;23;19914;-82
2023/11/16 02:19:39;;;;;;;13.75;7.93;;;;;;;6.38;100.00;100576.47;5946319;23;20072;-84
2023/11/16 02:22:25;;;;;;;;;;;;;;;;;;;;;
2023/11/16 02:24:55;;;;;;;17.45;8.55;;;7.80;99.90;;;6.47;100.00;100571.81;5925004;23;20503;-82
2023/11/16 02:27:21;;;;;;;27.83;9.90;;;7.80;99.90;;;6.51;100.00;100569.94;5932574;23;20054;-82
2023/11/16 02:29:46;;;;;;;21.80;9.35;;;7.80;99.90;;;6.53;100.00;100570.75;5959211;23;20019;-84
2023/11/16 02:32:12;;;;;;;28.38;10.63;;;7.90;99.90;;;6.59;100.00;100575.78;5926628;23;20041;-81
2023/11/16 02:34:50;;;;;;;20.67;9.98;;;7.90;99.90;;;6.61;100.00;100574.00;5936557;23;20015;-84
2023/11/16 02:37:16;;;;;;;18.23;9.52;;;7.90;99.90;;;6.63;100.00;100572.19;5966938;23;20345;-83
2023/11/16 02:39:49;;;;;;;23.30;10.18;;;;;;;6.67;100.00;100562.44;5985233;23;20086;-83
2023/11/16 02:42:15;;;;;;;25.55;10.98;;;7.90;99.90;;;6.69;100.00;100558.03;6054142;23;20024;-82
2023/11/16 02:44:42;;;;;;;28.05;10.23;;;8.00;99.90;;;6.70;100.00;100555.34;6024684;23;20018;-82
2023/11/16 02:47:08;;;;;;;34.15;10.88;;;8.00;99.90;;;6.72;100.00;100552.69;6085056;23;20040;-84
2023/11/16 02:49:42;;;;;;;29.08;10.98;;;8.00;99.90;;;6.75;100.00;100552.59;6049673;23;20010;-81
2023/11/16 02:52:10;;;;;;;21.50;10.65;;;8.10;99.90;;;6.77;100.00;100542.91;6067892;23;20081;-82
2023/11/16 02:54:38;;;;;;;31.83;10.80;;;8.10;99.90;;;6.76;100.00;100544.69;6104840;23;20017;-84
2023/11/16 02:57:13;;;;;;;23.52;11.50;;;8.10;99.90;;;6.81;100.00;100551.53;6024320;23;20516;-82
2023/11/16 02:59:40;;;;;;;33.75;12.07;;;8.10;99.90;;;6.84;100.00;100535.72;6065128;23;20017;-82
2023/11/16 03:02:18;;;;;;;27.35;11.15;;;8.20;99.90;;;6.85;100.00;100534.81;6084942;23;20358;-83
2023/11/16 03:04:54;;;;;;;28.73;12.25;;;8.20;99.90;;;6.88;100.00;100534.72;6080295;23;20020;-82
2023/11/16 03:07:19;;;;;;;27.13;11.38;;;8.20;99.90;;;6.89;100.00;100532.03;6064584;23;20009;-82
2023/11/16 03:09:47;;;;;;;25.95;11.13;;;8.20;99.90;;;6.88;100.00;100524.25;6072607;23;20024;-83
2023/11/16 03:12:22;;;;;;;24.45;11.52;;;;;;;6.91;100.00;100527.63;6050424;23;20014;-82
2023/11/16 03:14:51;;;;;;;22.60;11.20;;;8.20;99.90;;;6.91;100.00;100526.75;6060470;23;20016;-84
2023/11/16 03:17:17;;;;;;;30.58;12.02;;;8.20;99.90;;;6.93;100.00;100523.19;6045905;23;20071;-83
2023/11/16 03:19:52;;;;;;;26.38;12.07;;;8.30;99.90;;;6.98;100.00;100525.63;6049927;23;20021;-82
2023/11/16 03:22:20;;;;;;;22.30;10.65;;;8.30;99.90;;;6.95;100.00;100516.13;5991960;23;20010;-83
2023/11/16 03:25:09;;;;;;;29.05;11.68;;;8.30;99.90;;;6.99;100.00;100516.84;6028451;23;20512;-84
2023/11/16 03:27:37;;;;;;;30.05;11.98;;;8.30;99.90;;;7.05;100.00;100516.66;6054538;23;20025;-84
2023/11/16 03:30:05;;;;;;;26.98;12.35;;;8.30;99.90;;;7.08;100.00;100516.53;6017864;23;20093;-82
2023/11/16 03:32:36;;;;;;;32.75;13.05;;;8.40;99.90;;;7.09;100.00;100506.94;6029030;23;20017;-83
2023/11/16 03:35:03;;;;;;;33.67;12.82;;;;;;;7.11;100.00;100498.09;6030992;23;20021;-82
2023/11/16 03:37:31;;;;;;;27.95;12.43;;;8.40;99.90;;;7.14;100.00;100495.38;6063651;23;20028;-83
2023/11/16 03:39:57;;;;;;;27.23;12.82;;;8.50;99.90;;;7.17;100.00;100504.88;6069418;23;20014;-83
2023/11/16 03:42:29;;;;;;;30.83;13.82;;;;;;;7.19;100.00;100497.81;6021162;23;20549;-82
2023/11/16 03:44:55;;;;;;;37.65;12.63;;;8.50;99.90;;;7.21;100.00;100495.16;6080832;23;20038;-82
2023/11/16 03:47:20;;;;;;;31.67;13.13;;;8.50;99.90;;;7.25;100.00;100494.13;6034132;23;21029;-83
2023/11/16 03:49:46;;;;;;;25.17;12.90;;;8.50;99.90;;;7.26;100.00;100498.47;6015375;23;20034;-84
2023/11/16 03:52:12;;;;;;;28.98;12.90;;;8.50;99.90;;;7.30;100.00;100492.19;6056056;23;20014;-84
2023/11/16 03:55:01;;;;;;;35.65;12.38;;;8.60;99.90;;;7.32;100.00;100488.63;6015996;23;20022;-84
2023/11/16 03:57:30;;;;;;;29.52;11.90;;;8.60;99.90;;;7.30;100.00;100474.72;5885345;23;21066;-83
2023/11/16 03:59:56;;;;;;;23.17;11.95;;;8.60;99.90;;;7.33;100.00;100484.25;5880177;24;20541;-83
2023/11/16 04:02:29;;;;;;;27.73;12.45;;;8.60;99.90;;;7.36;100.00;100479.75;5928234;24;20108;-82
2023/11/16 04:04:56;;;;;;;25.42;11.60;;;8.60;99.90;;;7.38;100.00;100471.81;5876792;24;20025;-82
2023/11/16 04:07:22;;;;;;;28.45;10.77;;;8.60;99.90;;;7.39;100.00;100474.38;5914651;24;20020;-82
2023/11/16 04:09:58;;;;;;;;;;;;;;;;;;;;;
2023/11/16 04:12:24;;;;;;;29.52;11.68;;;8.70;99.90;;;7.44;100.00;100461.09;5915778;24;20190;-82
2023/11/16 04:14:50;;;;;;;28.10;12.18;;;8.70;99.90;;;7.47;100.00;100460.13;5915725;24;20339;-82
2023/11/16 04:17:16;;;;;;;26.73;11.50;;;8.70;99.90;;;7.48;100.00;100462.69;5846941;24;20054;-84
2023/11/16 04:19:49;;;;;;;25.58;9.82;;;8.80;99.90;;;7.49;100.00;100459.16;5828208;24;20202;-81
2023/11/16 04:22:21;;;;;;;31.83;10.77;;;8.80;99.90;;;7.51;100.00;100457.31;5887226;24;20036;-82
2023/11/16 04:24:53;;;;;;;27.63;9.63;;;;;;;7.50;100.00;100450.41;5885527;24;20494;-84
2023/11/16 04:27:20;;;;;;;30.73;11.15;;;8.70;99.90;;;7.50;100.00;100445.16;5849083;24;20020;-84
2023/11/16 04:29:48;;;;;;;24.20;10.20;;;8.80;99.90;;;7.53;100.00;100439.78;5867066;24;20902;-84
2023/11/16 04:32:23;;;;;;;29.45;10.85;;;;;;;7.54;100.00;100440.66;5866279;24;20021;-82
2023/11/16 04:34:50;;;;;;;25.60;10.43;;;8.80;99.90;;;7.51;100.00;100443.38;5965821;23;20022;-83
2023/11/16 04:37:23;;;;;;;27.15;9.45;;;8.80;99.90;;;7.53;100.00;100433.69;5990540;23;20006;-84
2023/11/16 04:39:49;;;;;;;26.58;9.90;;;;;;;7.54;100.00;100433.66;6023355;23;20022;-82
2023/11/16 04:42:15;;;;;;;31.35;10.45;;;8.80;99.90;;;7.53;100.00;100431.09;5976166;23;20018;-83
2023/11/16 04:44:42;;;;;;;31.27;11.25;;;8.80;99.90;;;7.58;100.00;100434.38;6060952;23;20517;-82
2023/11/16 04:47:15;;;;;;;26.38;9.73;;;8.80;99.90;;;7.58;100.00;100430.00;6028797;23;20018;-84
2023/11/16 04:49:41;;;;;;;22.63;9.50;;;8.80;99.90;;;7.56;100.00;100431.81;6062770;23;20112;-81
2023/11/16 04:52:07;;;;;;;25.58;8.90;;;8.80;99.90;;;7.56;100.00;100423.97;6085391;23;20377;-83
2023/11/16 04:54:34;;;;;;;23.83;9.02;;;8.80;99.90;;;7.56;100.00;100418.72;6026183;23;20507;-83
2023/11/16 04:57:00;;;;;;;23.27;9.80;;;8.80;99.90;;;7.59;100.00;100413.34;6060361;23;20017;-82
2023/11/16 04:59:31;;;;;;;27.00;10.00;;;8.90;99.90;;;7.60;100.00;100409.84;6049447;23;20009;-83
2023/11/16 05:02:00;;;;;;;29.50;8.95;;;;;;;7.62;100.00;100401.88;6027285;23;20387;-84
2023/11/16 05:04:26;;;;;;;22.40;8.65;;;8.90;99.90;;;7.61;100.00;100415.91;6049417;23;20017;-82
2023/11/16 05:06:52;;;;;;;29.08;9.07;;;;;;;7.64;100.00;100404.47;6029976;23;20105;-81
2023/11/16 05:09:39;;;;;;;21.55;8.43;;;;;;;7.66;100.00;100398.25;6074596;23;20066;-83
2023/11/16 05:12:06;;;;;;;30.05;9.52;;;8.90;99.90;;;7.67;100.00;100393.88;5906883;23;20012;-84
2023/11/16 05:14:32;;;;;;;22.65;8.23;;;8.90;99.90;;;7.68;100.00;100395.56;5941647;23;20028;-83
2023/11/16 05:16:58;;;;;;;21.30;8.35;;;8.90;99.90;;;7.70;100.00;100384.09;5946191;23;20072;-84
2023/11/16 05:19:24;;;;;;;25.50;8.13;;;8.90;99.90;;;7.71;100.00;100379.72;5945228;23;20015;-84
2023/11/16 05:22:05;;;;;;;25.05;8.65;;;9.00;99.90;;;7.71;100.00;100377.09;5955417;23;20124;-84
2023/11/16 05:24:39;;;;;;;25.77;7.50;;;;;;;7.72;100.00;100377.03;5927866;23;20024;-83
2023/11/16 05:27:07;;;;;;;23.10;8.27;;;;;;;7.74;100.00;100376.97;5919513;23;20020;-84
2023/11/16 05:29:33;;;;;;;24.45;7.57;;;9.00;99.90;;;7.76;100.00;100372.53;5949906;23;20027;-82
2023/11/16 05:32:09;;;;;;;21.67;8.27;;;9.00;99.90;;;7.79;100.00;100377.63;5958337;23;20017;-84
2023/11/16 05:34:34;;;;;;;25.35;6.57;;;9.00;99.90;;;7.79;100.00;100362.75;5960412;23;20370;-84
2023/11/16 05:37:00;;;;;;;23.80;7.00;;;9.00;99.90;;;7.76;100.00;100372.53;5901666;23;20022;-83
2023/11/16 05:39:35;;;;;;;27.83;7.60;;;9.00;99.90;;;7.81;100.00;100375.81;5923996;23;20023;-84
2023/11/16 05:42:01;;;;;;;25.15;6.25;;;9.00;99.90;;;7.76;100.00;100372.53;5862812;23;20020;-82
2023/11/16 05:44:26;;;;;;;17.40;6.28;;;9.00;99.90;;;7.76;100.00;100368.13;5887101;23;20047;-83
2023/11/16 05:46:53;;;;;;;16.00;6.25;;;9.00;99.90;;;7.76;100.00;100367.28;5918285;23;20116;-84
2023/11/16 05:49:26;;;;;;;24.67;6.63;;;9.10;99.90;;;7.77;100.00;100358.50;5988278;23;20082;-84
2023/11/16 05:51:53;;;;;;;18.02;5.13;;;9.00;99.90;;;7.77;100.00;100355.88;6005650;23;20028;-82
2023/11/16 05:54:20;;;;;;;20.85;5.90;;;9.00;99.90;;;7.76;100.00;100351.56;6015300;23;20052;-84
2023/11/16 05:56:53;;;;;;;13.77;5.35;;;9.00;99.90;;;7.77;100.00;100359.34;6040030;23;20014;-82
2023/11/16 05:59:20;;;;;;;23.42;5.78;;;;;;;7.76;100.00;100354.19;6014548;23;20063;-84
2023/11/16 06:01:46;;;;;;;25.65;5.57;;;9.00;99.90;;;7.76;100.00;100352.41;6060870;23;20070;-84
2023/11/16 06:04:13;;;;;;;17.95;5.82;;;9.00;99.90;;;7.74;100.00;100358.63;6039590;23;20014;-84
2023/11/16 06:07:02;;;;;;;18.95;5.28;;;9.00;99.90;;;7.69;100.00;100350.97;6047408;23;20049;-84
2023/11/16 06:09:29;;;;;;;19.55;5.53;;;;;;;7.71;100.00;100343.91;5993339;23;20006;-84
2023/11/16 06:11:54;;;;;;;17.00;5.53;;;9.00;99.90;;;7.72;100.00;100340.34;6027014;23;20078;-83
2023/11/16 06:14:22;;;;;;;18.98;5.15;;;9.00;99.90;;;7.75;100.00;100336.72;5982202;23;20049;-83
2023/11/16 06:16:57;;;;;;;16.48;5.13;;;9.00;99.90;;;7.74;100.00;100348.16;6034492;23;20014;-83
2023/11/16 06:19:24;;;;;;;12.70;4.43;;;9.00;99.90;;;7.71;100.00;100337.78;5984814;23;20097;-83
2023/11/16 06:22:12;;;;;;;21.77;4.45;;;9.00;99.90;;;7.70;100.00;100341.31;5991703;23;20022;-83
2023/11/16 06:24:38;;;;;;;17.05;4.60;;;;;;;7.66;100.00;100337.97;6034644;23;20102;-84
2023/11/16 06:27:04;;;;;;;15.50;4.65;;;8.90;99.90;;;7.63;100.00;100330.25;6037883;23;20013;-83
2023/11/16 06:29:30;;;;;;;19.33;5.00;;;8.90;99.90;;;7.63;100.00;100322.38;6052304;23;20020;-84
2023/11/16 06:32:07;;;;;;;17.10;4.90;;;;;;;7.66;100.00;100324.88;6023292;23;20070;-84
2023/11/16 06:34:34;;;;;;;14.73;4.38;;;;;;;7.67;100.00;100320.50;6045059;23;20010;-84
2023/11/16 06:37:00;;;;;;;17.98;4.25;;;9.00;99.90;;;7.69;100.00;100316.91;6049701;23;20470;-84
2023/11/16 06:39:32;;;;;;;18.27;4.70;;;9.00;99.90;;;7.77;100.00;100321.81;6004870;23;20018;-83
2023/11/16 06:42:00;;;;;;;18.52;5.00;;;9.00;99.90;;;7.77;100.00;100306.06;6056686;23;21900;-83
2023/11/16 06:44:27;;;;;;;13.93;4.60;;;9.00;99.90;;;7.77;100.00;100311.31;5997820;23;20027;-84
2023/11/16 06:46:53;;;;;;;13.52;4.35;;;9.00;99.90;;;7.75;100.00;100302.66;6043612;23;20009;-82
2023/11/16 06:49:26;;;;;;;15.20;4.40;;;9.00;99.90;;;7.71;100.00;100296.72;5979865;23;20375;-82
2023/11/16 06:51:53;;;;;;;16.35;4.05;;;9.00;99.90;;;7.68;100.00;100302.06;6051650;23;20311;-81
2023/11/16 06:54:21;;;;;;;14.77;4.50;;;9.00;99.90;;;7.66;100.00;100303.06;6056097;23;20117;-82
2023/11/16 06:56:53;;;;;;;15.63;4.70;;;8.90;99.90;;;7.64;100.00;100294.41;6047657;23;20018;-83
2023/11/16 06:59:20;;;;;;;14.98;4.30;;;;;;;7.62;100.00;100297.06;6020845;23;20037;-83
2023/11/16 07:01:47;;;;;;;8.68;3.90;;;8.90;99.90;;;7.57;100.00;100289.41;6067442;23;20018;-83
2023/11/16 07:04:19;;;;;;;14.93;4.78;;;8.90;99.90;;;7.62;100.00;100291.84;6072963;23;20022;-82
2023/11/16 07:06:48;;;;;;;13.55;4.20;;;8.90;99.90;;;7.62;100.00;100298.84;6025169;23;20017;-83
2023/11/16 07:09:17;;;;;;;20.77;5.00;;;8.80;99.90;;;7.58;100.00;100301.63;6012713;23;20455;-84
2023/11/16 07:12:06;;;;;;;17.58;4.25;;;8.90;99.90;;;7.57;100.00;100294.66;6032060;23;20729;-83
2023/11/16 07:14:31;;;;;;;13.20;4.50;;;8.90;99.90;;;7.57;100.00;100294.66;5961882;23;20053;-82
2023/11/16 07:16:57;;;;;;;13.90;4.35;;;8.90;99.90;;;7.56;100.00;100292.13;6009500;23;20015;-84
2023/11/16 07:19:26;;;;;;;14.30;4.50;;;8.90;99.90;;;7.58;100.00;100300.72;6035526;23;21509;-83
2023/11/16 07:21:59;;;;;;;12.75;4.05;;;8.90;99.90;;;7.60;100.00;100289.31;6070448;23;20022;-83
2023/11/16 07:24:25;;;;;;;17.65;5.00;;;8.90;99.90;;;7.62;100.00;100291.84;6029643;23;20081;-83
2023/11/16 07:26:51;;;;;;;10.63;4.00;;;8.90;99.90;;;7.65;100.00;100296.13;6052135;23;20340;-83
2023/11/16 07:29:17;;;;;;;12.30;4.47;;;8.90;99.90;;;7.69;100.00;100292.44;6011646;23;20062;-84
2023/11/16 07:31:53;;;;;;;23.05;4.85;;;;;;;7.70;100.00;100289.75;5998293;23;20010;-83
2023/11/16 07:34:27;;;;;;;9.73;3.60;;;8.90;99.90;;;7.70;100.00;100288.91;6039387;23;20015;-84
2023/11/16 07:36:53;;;;;;;19.98;4.20;;;9.00;99.90;;;7.68;100.00;100291.59;6049178;23;20245;-83
2023/11/16 07:39:21;;;;;;;10.75;3.38;;;8.80;99.90;;;7.71;100.00;100285.34;6016541;23;20072;-83
2023/11/16 07:41:51;;;;;;;11.52;4.00;;;9.00;99.90;;;7.73;100.00;100283.53;6031366;23;20021;-84
2023/11/16 07:44:20;;;;;;;12.68;3.05;;;9.00;99.90;;;7.78;100.00;100281.59;5969332;23;20041;-83
2023/11/16 07:46:46;;;;;;;11.20;3.25;;;9.10;99.90;;;7.81;100.00;100278.81;6076367;23;20063;-82
2023/11/16 07:49:12;;;;;;;7.93;2.88;;;;;;;7.80;100.00;100279.75;6006598;23;20018;-82
2023/11/16 07:51:41;;;;;;;11.23;2.83;;;9.10;99.90;;;7.79;100.00;100288.50;6018230;23;20014;-82
2023/11/16 07:54:15;;;;;;;11.85;3.20;;;9.10;99.90;;;7.80;100.00;100282.38;5992445;23;20041;-82
2023/11/16 07:56:45;;;;;;;13.55;3.20;;;9.10;99.90;;;7.81;100.00;100276.19;6042585;23;20094;-83
2023/11/16 07:59:25;;;;;;;12.25;3.00;;;9.10;99.90;;;7.80;100.00;100270.13;6023473;23;20011;-83
2023/11/16 08:02:00;;;;;;;12.90;3.15;;;9.10;99.90;;;7.87;100.00;100272.47;5998645;23;20355;-83
2023/11/16 08:04:29;;;;;;;9.32;2.60;;;9.10;99.90;;;7.84;100.00;100270.84;6061119;23;20094;-84
2023/11/16 08:07:03;;;;;;;5.60;2.08;;;9.10;99.90;;;7.80;100.00;100272.75;6044982;23;20014;-83
2023/11/16 08:09:31;;;;;;;7.10;2.20;;;;;;;7.77;100.00;100274.63;6047536;23;20018;-84
2023/11/16 08:12:04;;;;;;;9.23;2.80;;;9.10;99.90;;;7.78;100.00;100268.47;6082259;23;20028;-83
2023/11/16 08:14:32;;;;;;;4.60;2.40;;;;;;;7.77;100.00;100282.47;6008374;23;20022;-83
2023/11/16 08:16:58;;;;;;;9.40;2.83;;;9.10;99.90;;;7.76;100.00;100315.72;6043594;23;20025;-83
2023/11/16 08:19:50;;;;;;;6.85;1.52;;;9.00;99.90;;;7.56;100.00;100305.22;6029387;23;20014;-84
2023/11/16 08:22:16;;;;;;;4.63;0.82;;;8.80;99.90;;;7.41;100.00;100304.06;6004742;23;21550;-83
2023/11/16 08:24:41;;;;;;;2.25;0.65;;;8.70;99.90;;;7.25;100.00;100302.97;6019036;23;20053;-83
2023/11/16 08:27:11;;;;;;;0.77;0.47;;;8.60;99.90;;;7.15;100.00;100305.09;6027218;23;20018;-84
2023/11/16 08:29:42;;;;;;;2.65;0.43;;;;;;;7.08;100.00;100319.31;6002364;23;20025;-84
2023/11/16 08:32:11;;;;;;;1.88;0.55;;;;;;;6.98;100.00;100316.22;6074310;23;20557;-83
2023/11/16 08:34:37;;;;;;;2.05;0.50;;;8.40;99.90;;;6.97;100.00;100314.50;6047134;23;20022;-85
2023/11/16 08:37:41;;;;;;;1.48;0.40;;;8.30;99.90;;;6.78;100.00;100317.81;6009718;23;20093;-83
2023/11/16 08:40:23;;;;;;;0.73;0.20;;;8.20;99.90;;;6.66;100.00;100315.66;5881269;23;20022;-84
2023/11/16 08:42:56;;;;;;;3.10;0.40;;;;;;;6.58;100.00;100317.69;5901943;23;20032;-85
2023/11/16 08:45:25;;;;;;;0.80;0.22;;;;;;;6.58;100.00;100312.47;5886543;23;20066;-83
2023/11/16 08:47:56;;;;;;;1.33;0.20;;;;;;;6.49;100.00;100318.88;5937537;23;20397;-84
2023/11/16 08:50:33;;;;;;;0.68;0.25;;;;;;;6.48;100.00;100321.53;5963143;23;20381;-83
2023/11/16 08:53:00;;;;;;;2.97;0.30;;;;;;;6.57;100.00;100324.69;5891551;23;20021;-82
2023/11/16 08:55:35;;;;;;;3.80;0.30;;;8.00;99.90;;;6.58;100.00;100325.53;5867124;23;20032;-84
2023/11/16 08:58:01;;;;;;;0.25;0.20;;;;;;;6.60;100.00;100326.34;5885253;24;20021;-83
2023/11/16 09:00:37;;;;;;;;;;;;;;;;;;;;;
2023/11/16 09:03:07;;;;;;;0.20;0.20;;;;;;;6.71;100.00;100332.03;5857359;24;20068;-83
2023/11/16 09:05:43;;;;;;;2.30;0.15;;;8.10;99.90;;;6.63;100.00;100326.25;5849804;24;20026;-83
2023/11/16 09:08:10;;;;;;;;;;;8.00;99.90;;;6.52;100.00;100334.50;5809517;24;20083;-84
2023/11/16 09:10:46;;;;;;;0.00;0.00;;;;;;;6.50;100.00;100343.28;5797850;24;20281;-83
2023/11/16 09:13:13;;;;;;;0.10;0.10;;;7.90;99.90;;;6.49;100.00;100352.03;5862768;24;20045;-85
2023/11/16 09:15:39;;;;;;;0.10;0.00;;;7.90;99.90;;;6.46;100.00;100355.63;5880235;24;20052;-85
2023/11/16 09:18:31;;;;;;;1.73;0.08;;;8.00;99.90;;;6.49;100.00;100349.44;5955826;24;20290;-85
2023/11/16 09:21:02;;;;;;;0.00;0.00;;;;;;;6.51;100.00;100360.69;5895102;24;20016;-85
2023/11/16 09:23:50;;;;;;;0.00;0.00;;;8.00;99.90;;;6.57;100.00;100357.84;5897155;24;20040;-83
2023/11/16 09:26:18;;;;;;;0.40;0.00;;;;;;;6.52;100.00;100350.19;5869547;24;20029;-83
2023/11/16 09:28:44;;;;;;;0.35;0.10;;;7.90;99.90;;;6.42;100.00;100356.63;5861456;24;20572;-84
2023/11/16 09:31:46;;;;;;;;;;;;;;;;;;;;;
2023/11/16 09:34:21;;;;;;;1.85;0.20;;;7.80;99.90;;;6.30;100.00;100355.28;5855890;24;20190;-83
2023/11/16 09:37:01;;;;;;;0.10;0.10;;;;;;;6.26;100.00;100353.69;5965528;23;20019;-84
2023/11/16 09:39:33;;;;;;;0.10;0.00;;;;;;;6.24;100.00;100359.88;5972679;23;20066;-84
2023/11/16 09:42:16;;;;;;;2.05;0.10;;;7.70;99.90;;;6.18;100.00;100350.50;5986751;23;20031;-83
2023/11/16 09:44:55;;;;;;;1.27;0.13;;;7.40;99.90;;;6.12;100.00;100348.94;5991571;23;20070;-83
2023/11/16 09:47:39;;;;;;;2.38;0.20;;;;;;;6.07;100.00;100360.44;5980716;23;20011;-82
2023/11/16 09:50:16;;;;;;;0.17;0.10;;;7.50;99.90;;;6.04;100.00;100344.88;6002510;23;20034;-84
2023/11/16 09:52:55;;;;;;;1.38;0.10;;;7.50;99.90;;;6.09;100.00;100350.81;5970241;23;20101;-83
2023/11/16 09:55:23;;;;;;;0.20;0.15;;;;;;;6.11;100.00;100349.88;5955793;23;20016;-83
2023/11/16 09:58:23;;;;;;;1.92;0.20;;;7.60;99.90;;;6.19;100.00;100340.91;6031276;23;20471;-83
2023/11/16 10:00:57;;;;;;;0.20;0.00;;;7.60;99.90;;;6.16;100.00;100347.09;6034042;23;20045;-84
2023/11/16 10:03:40;;;;;;;0.00;0.00;;;7.50;99.90;;;6.16;100.00;100347.09;6036976;23;20582;-82
2023/11/16 10:06:20;;;;;;;1.38;0.25;;;7.60;99.90;;;6.20;100.00;100347.81;6040232;23;20018;-84
2023/11/16 10:08:53;;;;;;;1.08;0.10;;;;;;;6.13;100.00;100347.19;6028685;23;20018;-82
2023/11/16 10:11:25;;;;;;;0.00;0.00;;;7.50;99.90;;;6.07;100.00;100350.00;6021932;23;20018;-82
2023/11/16 10:14:00;;;;;;;0.00;0.00;;;7.50;99.90;;;6.07;100.00;100344.78;6053098;23;20348;-83
2023/11/16 10:16:27;;;;;;;0.00;0.00;;;7.50;99.90;;;6.06;100.00;100335.22;6003199;23;20019;-83
2023/11/16 10:19:06;;;;;;;0.55;0.20;;;;;;;6.07;100.00;100343.03;6015060;23;20062;-83
2023/11/16 10:22:02;;;;;;;0.00;0.00;;;;;;;6.03;100.00;100349.28;6000997;23;20018;-82
2023/11/16 10:24:35;;;;;;;0.00;0.00;;;;;;;5.82;100.00;100355.19;6036648;23;20027;-83
2023/11/16 10:27:02;;;;;;;3.03;0.35;;;;;;;5.86;100.00;100351.56;6016314;23;20018;-84
2023/11/16 10:29:30;;;;;;;2.28;0.10;;;7.30;99.90;;;5.79;100.00;100361.38;6035066;23;20026;-84
2023/11/16 10:31:56;;;;;;;2.95;0.08;;;7.20;99.90;;;5.76;99.79;100357.06;6044112;23;20025;-82
2023/11/16 10:34:45;;;;;;;0.20;0.10;;;7.20;99.90;;;5.73;98.74;100343.28;5997989;23;20012;-82
2023/11/16 10:37:13;;;;;;;0.30;0.15;;;7.20;99.90;;;5.74;97.72;100344.97;5990638;23;20475;-82
2023/11/16 10:39:43;;;;;;;0.00;0.00;;;7.20;99.90;;;5.78;97.47;100354.41;6032442;23;20316;-83
2023/11/16 10:42:18;;;;;;;0.00;0.00;;;;;;;5.69;96.23;100347.72;6002398;23;20018;-84
2023/11/16 10:45:46;;;;;;;0.00;0.00;;;7.10;99.90;;;5.63;95.21;100354.91;6059109;23;20078;-83
2023/11/16 10:48:13;;;;;;;0.77;0.00;;;;;;;5.57;95.04;100357.72;6034400;23;20534;-82
2023/11/16 10:50:52;;;;;;;0.17;0.00;;;7.00;99.90;;;5.55;95.33;100355.19;6057785;23;20014;-84
2023/11/16 10:53:44;;;;;;;0.08;0.03;;;7.00;99.90;;;5.52;94.91;100356.09;6005792;23;20415;-81